sensor_id;sensor_type;location;lat;lon;timestamp;temperature;humidity
14735;DHT22;7458;49.002;8.472;2023-08-21T00:00:23;25.90;99.90
14735;DHT22;7458;49.002;8.472;2023-08-21T00:02:49;25.50;99.90
14735;DHT22;7458;49.002;8.472;2023-08-21T00:05:14;25.40;99.90
14735;DHT22;7458;49.002;8.472;2023-08-21T00:07:40;25.20;99.90
14735;DHT22;7458;49.002;8.472;2023-08-21T00:10:07;25.20;99.90
14735;DHT22;7458;49.002;8.472;2023-08-21T00:12:34;25.30;99.90
14735;DHT22;7458;49.002;8.472;2023-08-21T00:15:00;25.20;99.90
14735;DHT22;7458;49.002;8.472;2023-08-21T00:17:25;25.20;99.90
14735;DHT22;7458;49.002;8.472;2023-08-21T00:19:51;25.90;99.90
14735;DHT22;7458;49.002;8.472;2023-08-21T00:22:17;25.50;99.90
14735;DHT22;7458;49.002;8.472;2023-08-21T00:24:42;24.90;99.90
14735;DHT22;7458;49.002;8.472;2023-08-21T00:27:09;25.10;99.90
14735;DHT22;7458;49.002;8.472;2023-08-21T00:29:35;26.10;99.90
14735;DHT22;7458;49.002;8.472;2023-08-21T00:32:01;25.20;99.90
14735;DHT22;7458;49.002;8.472;2023-08-21T00:34:27;25.20;99.90
14735;DHT22;7458;49.002;8.472;2023-08-21T00:36:53;24.90;99.90
14735;DHT22;7458;49.002;8.472;2023-08-21T00:39:18;25.10;99.90
14735;DHT22;7458;49.002;8.472;2023-08-21T00:41:44;25.10;99.90
14735;DHT22;7458;49.002;8.472;2023-08-21T00:44:10;25.10;99.90
14735;DHT22;7458;49.002;8.472;2023-08-21T00:46:36;24.40;99.90
14735;DHT22;7458;49.002;8.472;2023-08-21T00:49:02;24.90;99.90
14735;DHT22;7458;49.002;8.472;2023-08-21T00:51:28;24.90;99.90
14735;DHT22;7458;49.002;8.472;2023-08-21T00:53:54;24.90;99.90
14735;DHT22;7458;49.002;8.472;2023-08-21T00:56:21;24.90;99.90
14735;DHT22;7458;49.002;8.472;2023-08-21T00:58:47;24.90;99.90
14735;DHT22;7458;49.002;8.472;2023-08-21T01:01:14;24.90;99.90
14735;DHT22;7458;49.002;8.472;2023-08-21T01:03:43;24.80;99.90
14735;DHT22;7458;49.002;8.472;2023-08-21T01:06:09;24.60;99.90
14735;DHT22;7458;49.002;8.472;2023-08-21T01:08:53;24.60;99.90
14735;DHT22;7458;49.002;8.472;2023-08-21T01:11:40;24.60;99.90
14735;DHT22;7458;49.002;8.472;2023-08-21T01:14:16;24.40;99.90
14735;DHT22;7458;49.002;8.472;2023-08-21T01:16:56;24.40;99.90
14735;DHT22;7458;49.002;8.472;2023-08-21T01:19:36;24.50;99.90
14735;DHT22;7458;49.002;8.472;2023-08-21T01:22:05;24.50;99.90
14735;DHT22;7458;49.002;8.472;2023-08-21T01:24:31;24.50;99.90
14735;DHT22;7458;49.002;8.472;2023-08-21T01:26:57;24.20;99.90
14735;DHT22;7458;49.002;8.472;2023-08-21T01:29:23;24.50;99.90
14735;DHT22;7458;49.002;8.472;2023-08-21T01:31:55;24.40;99.90
14735;DHT22;7458;49.002;8.472;2023-08-21T01:34:28;24.40;99.90
14735;DHT22;7458;49.002;8.472;2023-08-21T01:36:59;24.40;99.90
14735;DHT22;7458;49.002;8.472;2023-08-21T01:39:25;24.30;99.90
14735;DHT22;7458;49.002;8.472;2023-08-21T01:41:52;24.50;99.90
14735;DHT22;7458;49.002;8.472;2023-08-21T01:44:17;24.30;99.90
14735;DHT22;7458;49.002;8.472;2023-08-21T01:46:43;24.30;99.90
14735;DHT22;7458;49.002;8.472;2023-08-21T01:49:09;24.30;99.90
14735;DHT22;7458;49.002;8.472;2023-08-21T01:51:34;24.30;99.90
14735;DHT22;7458;49.002;8.472;2023-08-21T01:54:00;24.30;99.90
14735;DHT22;7458;49.002;8.472;2023-08-21T01:56:26;24.30;99.90
14735;DHT22;7458;49.002;8.472;2023-08-21T01:58:51;24.20;99.90
14735;DHT22;7458;49.002;8.472;2023-08-21T02:03:44;24.10;99.90
14735;DHT22;7458;49.002;8.472;2023-08-21T02:06:10;24.10;99.90
14735;DHT22;7458;49.002;8.472;2023-08-21T02:08:37;24.00;99.90
14735;DHT22;7458;49.002;8.472;2023-08-21T02:11:02;24.00;99.90
14735;DHT22;7458;49.002;8.472;2023-08-21T02:13:28;24.00;99.90
14735;DHT22;7458;49.002;8.472;2023-08-21T02:18:20;24.00;99.90
14735;DHT22;7458;49.002;8.472;2023-08-21T02:20:47;24.00;99.90
14735;DHT22;7458;49.002;8.472;2023-08-21T02:23:15;24.10;99.90
14735;DHT22;7458;49.002;8.472;2023-08-21T02:25:41;24.00;99.90
14735;DHT22;7458;49.002;8.472;2023-08-21T02:28:07;24.00;99.90
14735;DHT22;7458;49.002;8.472;2023-08-21T02:30:33;24.00;99.90
14735;DHT22;7458;49.002;8.472;2023-08-21T02:32:58;24.00;99.90
14735;DHT22;7458;49.002;8.472;2023-08-21T02:35:24;23.90;99.90
14735;DHT22;7458;49.002;8.472;2023-08-21T02:37:50;23.80;99.90
14735;DHT22;7458;49.002;8.472;2023-08-21T02:40:16;23.80;99.90
14735;DHT22;7458;49.002;8.472;2023-08-21T02:42:42;23.80;99.90
14735;DHT22;7458;49.002;8.472;2023-08-21T02:45:08;23.60;99.90
14735;DHT22;7458;49.002;8.472;2023-08-21T02:47:38;23.70;99.90
14735;DHT22;7458;49.002;8.472;2023-08-21T02:50:05;23.70;99.90
14735;DHT22;7458;49.002;8.472;2023-08-21T02:52:33;23.60;99.90
14735;DHT22;7458;49.002;8.472;2023-08-21T02:55:00;23.30;99.90
14735;DHT22;7458;49.002;8.472;2023-08-21T02:57:26;23.70;99.90
14735;DHT22;7458;49.002;8.472;2023-08-21T02:59:53;23.70;99.90
14735;DHT22;7458;49.002;8.472;2023-08-21T03:02:20;23.60;99.90
14735;DHT22;7458;49.002;8.472;2023-08-21T03:04:46;23.70;99.90
14735;DHT22;7458;49.002;8.472;2023-08-21T03:07:13;23.70;99.90
14735;DHT22;7458;49.002;8.472;2023-08-21T03:09:40;24.30;99.90
14735;DHT22;7458;49.002;8.472;2023-08-21T03:12:07;23.60;99.90
14735;DHT22;7458;49.002;8.472;2023-08-21T03:14:34;24.20;99.90
14735;DHT22;7458;49.002;8.472;2023-08-21T03:16:59;23.60;99.90
14735;DHT22;7458;49.002;8.472;2023-08-21T03:19:25;23.50;99.90
14735;DHT22;7458;49.002;8.472;2023-08-21T03:21:51;24.00;99.90
14735;DHT22;7458;49.002;8.472;2023-08-21T03:24:17;24.20;99.90
14735;DHT22;7458;49.002;8.472;2023-08-21T03:26:43;23.50;99.90
14735;DHT22;7458;49.002;8.472;2023-08-21T03:29:09;23.40;99.90
14735;DHT22;7458;49.002;8.472;2023-08-21T03:31:35;23.50;99.90
14735;DHT22;7458;49.002;8.472;2023-08-21T03:34:01;23.50;99.90
14735;DHT22;7458;49.002;8.472;2023-08-21T03:36:27;23.80;99.90
14735;DHT22;7458;49.002;8.472;2023-08-21T03:39:03;23.90;99.90
14735;DHT22;7458;49.002;8.472;2023-08-21T03:41:32;23.50;99.90
14735;DHT22;7458;49.002;8.472;2023-08-21T03:43:58;23.50;99.90
14735;DHT22;7458;49.002;8.472;2023-08-21T03:46:23;23.40;99.90
14735;DHT22;7458;49.002;8.472;2023-08-21T03:48:50;23.40;99.90
14735;DHT22;7458;49.002;8.472;2023-08-21T03:51:16;23.30;99.90
14735;DHT22;7458;49.002;8.472;2023-08-21T03:53:42;23.30;99.90
14735;DHT22;7458;49.002;8.472;2023-08-21T03:56:07;23.20;99.90
14735;DHT22;7458;49.002;8.472;2023-08-21T03:58:33;23.10;99.90
14735;DHT22;7458;49.002;8.472;2023-08-21T04:01:00;23.10;99.90
14735;DHT22;7458;49.002;8.472;2023-08-21T04:03:26;23.20;99.90
14735;DHT22;7458;49.002;8.472;2023-08-21T04:05:53;23.20;99.90
14735;DHT22;7458;49.002;8.472;2023-08-21T04:08:22;23.20;99.90
14735;DHT22;7458;49.002;8.472;2023-08-21T04:10:48;23.10;99.90
14735;DHT22;7458;49.002;8.472;2023-08-21T04:13:14;23.10;99.90
14735;DHT22;7458;49.002;8.472;2023-08-21T04:15:44;22.70;99.90
14735;DHT22;7458;49.002;8.472;2023-08-21T04:20:37;23.00;99.90
14735;DHT22;7458;49.002;8.472;2023-08-21T04:23:03;23.00;99.90
14735;DHT22;7458;49.002;8.472;2023-08-21T04:25:29;23.00;99.90
14735;DHT22;7458;49.002;8.472;2023-08-21T04:27:55;22.90;99.90
14735;DHT22;7458;49.002;8.472;2023-08-21T04:30:21;22.90;99.90
14735;DHT22;7458;49.002;8.472;2023-08-21T04:32:47;22.80;99.90
14735;DHT22;7458;49.002;8.472;2023-08-21T04:35:13;22.70;99.90
14735;DHT22;7458;49.002;8.472;2023-08-21T04:37:43;22.80;99.90
14735;DHT22;7458;49.002;8.472;2023-08-21T04:40:11;22.90;99.90
14735;DHT22;7458;49.002;8.472;2023-08-21T04:42:37;22.70;99.90
14735;DHT22;7458;49.002;8.472;2023-08-21T04:45:04;22.50;99.90
14735;DHT22;7458;49.002;8.472;2023-08-21T04:47:31;22.70;99.90
14735;DHT22;7458;49.002;8.472;2023-08-21T04:49:57;22.50;99.90
14735;DHT22;7458;49.002;8.472;2023-08-21T04:52:24;22.90;99.90
14735;DHT22;7458;49.002;8.472;2023-08-21T04:57:17;23.00;99.90
14735;DHT22;7458;49.002;8.472;2023-08-21T04:59:46;22.80;99.90
14735;DHT22;7458;49.002;8.472;2023-08-21T05:04:38;22.90;99.90
14735;DHT22;7458;49.002;8.472;2023-08-21T05:07:05;22.90;99.90
14735;DHT22;7458;49.002;8.472;2023-08-21T05:09:31;22.80;99.90
14735;DHT22;7458;49.002;8.472;2023-08-21T05:11:57;22.70;99.90
14735;DHT22;7458;49.002;8.472;2023-08-21T05:14:24;22.80;99.90
14735;DHT22;7458;49.002;8.472;2023-08-21T05:16:53;22.20;99.90
14735;DHT22;7458;49.002;8.472;2023-08-21T05:19:19;23.00;99.90
14735;DHT22;7458;49.002;8.472;2023-08-21T05:21:46;22.90;99.90
14735;DHT22;7458;49.002;8.472;2023-08-21T05:24:11;23.00;99.90
14735;DHT22;7458;49.002;8.472;2023-08-21T05:26:38;22.80;99.90
14735;DHT22;7458;49.002;8.472;2023-08-21T05:29:04;22.90;99.90
14735;DHT22;7458;49.002;8.472;2023-08-21T05:31:30;22.70;99.90
14735;DHT22;7458;49.002;8.472;2023-08-21T05:36:22;23.30;99.90
14735;DHT22;7458;49.002;8.472;2023-08-21T05:38:49;23.10;99.90
14735;DHT22;7458;49.002;8.472;2023-08-21T05:41:16;23.10;99.90
14735;DHT22;7458;49.002;8.472;2023-08-21T05:43:43;23.10;99.90
14735;DHT22;7458;49.002;8.472;2023-08-21T05:46:08;23.30;99.90
14735;DHT22;7458;49.002;8.472;2023-08-21T05:51:01;23.60;99.90
14735;DHT22;7458;49.002;8.472;2023-08-21T05:53:27;23.70;99.90
14735;DHT22;7458;49.002;8.472;2023-08-21T05:55:54;23.50;99.90
14735;DHT22;7458;49.002;8.472;2023-08-21T05:58:19;23.50;99.90
14735;DHT22;7458;49.002;8.472;2023-08-21T06:00:47;23.80;99.90
14735;DHT22;7458;49.002;8.472;2023-08-21T06:03:13;23.60;99.90
14735;DHT22;7458;49.002;8.472;2023-08-21T06:08:05;23.60;99.90
14735;DHT22;7458;49.002;8.472;2023-08-21T06:10:34;24.10;99.90
14735;DHT22;7458;49.002;8.472;2023-08-21T06:13:00;24.00;99.90
14735;DHT22;7458;49.002;8.472;2023-08-21T06:17:51;24.10;99.90
14735;DHT22;7458;49.002;8.472;2023-08-21T06:20:17;24.30;99.90
14735;DHT22;7458;49.002;8.472;2023-08-21T06:22:45;24.30;99.90
14735;DHT22;7458;49.002;8.472;2023-08-21T06:25:10;24.40;99.90
14735;DHT22;7458;49.002;8.472;2023-08-21T06:27:36;24.60;99.90
14735;DHT22;7458;49.002;8.472;2023-08-21T06:30:02;24.60;99.90
14735;DHT22;7458;49.002;8.472;2023-08-21T06:32:28;26.30;99.90
14735;DHT22;7458;49.002;8.472;2023-08-21T06:34:54;29.10;99.90
14735;DHT22;7458;49.002;8.472;2023-08-21T06:39:46;30.10;99.90
14735;DHT22;7458;49.002;8.472;2023-08-21T06:42:12;31.40;99.90
14735;DHT22;7458;49.002;8.472;2023-08-21T06:44:37;31.90;99.90
14735;DHT22;7458;49.002;8.472;2023-08-21T06:49:29;33.10;96.80
14735;DHT22;7458;49.002;8.472;2023-08-21T06:56:47;35.60;92.20
14735;DHT22;7458;49.002;8.472;2023-08-21T06:59:13;35.60;89.10
14735;DHT22;7458;49.002;8.472;2023-08-21T07:04:05;36.40;79.20
14735;DHT22;7458;49.002;8.472;2023-08-21T07:06:31;37.20;81.40
14735;DHT22;7458;49.002;8.472;2023-08-21T07:18:42;32.80;85.30
14735;DHT22;7458;49.002;8.472;2023-08-21T07:21:08;33.10;90.00
14735;DHT22;7458;49.002;8.472;2023-08-21T07:23:34;32.70;88.60
14735;DHT22;7458;49.002;8.472;2023-08-21T07:26:01;33.10;88.10
14735;DHT22;7458;49.002;8.472;2023-08-21T07:28:27;32.20;87.80
14735;DHT22;7458;49.002;8.472;2023-08-21T07:30:57;31.80;90.10
14735;DHT22;7458;49.002;8.472;2023-08-21T07:33:24;31.50;90.60
14735;DHT22;7458;49.002;8.472;2023-08-21T07:36:01;31.60;90.80
14735;DHT22;7458;49.002;8.472;2023-08-21T07:38:30;31.50;91.70
14735;DHT22;7458;49.002;8.472;2023-08-21T07:41:07;31.50;91.90
14735;DHT22;7458;49.002;8.472;2023-08-21T07:43:36;31.80;91.40
14735;DHT22;7458;49.002;8.472;2023-08-21T07:46:11;31.50;91.80
14735;DHT22;7458;49.002;8.472;2023-08-21T07:48:41;30.80;91.90
14735;DHT22;7458;49.002;8.472;2023-08-21T07:51:08;31.20;92.50
14735;DHT22;7458;49.002;8.472;2023-08-21T07:53:35;31.20;92.60
14735;DHT22;7458;49.002;8.472;2023-08-21T07:56:03;31.20;93.10
14735;DHT22;7458;49.002;8.472;2023-08-21T07:58:30;31.30;92.80
14735;DHT22;7458;49.002;8.472;2023-08-21T08:00:57;31.40;92.50
14735;DHT22;7458;49.002;8.472;2023-08-21T08:03:23;31.10;94.40
14735;DHT22;7458;49.002;8.472;2023-08-21T08:05:48;31.20;93.90
14735;DHT22;7458;49.002;8.472;2023-08-21T08:08:16;30.90;92.60
14735;DHT22;7458;49.002;8.472;2023-08-21T08:10:43;31.00;93.90
14735;DHT22;7458;49.002;8.472;2023-08-21T08:13:09;31.20;96.00
14735;DHT22;7458;49.002;8.472;2023-08-21T08:15:35;31.10;94.50
14735;DHT22;7458;49.002;8.472;2023-08-21T08:18:03;31.40;93.10
14735;DHT22;7458;49.002;8.472;2023-08-21T08:20:29;31.90;92.50
14735;DHT22;7458;49.002;8.472;2023-08-21T08:22:55;32.10;92.20
14735;DHT22;7458;49.002;8.472;2023-08-21T08:25:22;32.70;93.60
14735;DHT22;7458;49.002;8.472;2023-08-21T08:27:48;33.00;90.20
14735;DHT22;7458;49.002;8.472;2023-08-21T08:30:14;33.20;88.30
14735;DHT22;7458;49.002;8.472;2023-08-21T08:32:42;33.80;89.70
14735;DHT22;7458;49.002;8.472;2023-08-21T08:35:13;34.10;85.90
14735;DHT22;7458;49.002;8.472;2023-08-21T08:37:41;33.90;82.40
14735;DHT22;7458;49.002;8.472;2023-08-21T08:40:08;33.70;87.70
14735;DHT22;7458;49.002;8.472;2023-08-21T08:42:35;33.80;87.70
14735;DHT22;7458;49.002;8.472;2023-08-21T08:45:03;33.40;89.30
14735;DHT22;7458;49.002;8.472;2023-08-21T08:47:32;33.50;79.50
14735;DHT22;7458;49.002;8.472;2023-08-21T08:50:05;33.60;80.40
14735;DHT22;7458;49.002;8.472;2023-08-21T08:52:36;34.00;82.40
14735;DHT22;7458;49.002;8.472;2023-08-21T08:55:04;34.50;81.10
14735;DHT22;7458;49.002;8.472;2023-08-21T08:57:32;34.10;88.90
14735;DHT22;7458;49.002;8.472;2023-08-21T08:59:58;33.40;75.50
14735;DHT22;7458;49.002;8.472;2023-08-21T09:02:27;33.80;77.90
14735;DHT22;7458;49.002;8.472;2023-08-21T09:04:53;34.00;86.90
14735;DHT22;7458;49.002;8.472;2023-08-21T09:07:20;33.80;76.60
14735;DHT22;7458;49.002;8.472;2023-08-21T09:09:48;33.70;78.00
14735;DHT22;7458;49.002;8.472;2023-08-21T09:12:19;33.60;78.60
14735;DHT22;7458;49.002;8.472;2023-08-21T09:14:46;33.50;78.30
14735;DHT22;7458;49.002;8.472;2023-08-21T09:17:12;33.50;78.10
14735;DHT22;7458;49.002;8.472;2023-08-21T09:19:39;33.80;79.60
14735;DHT22;7458;49.002;8.472;2023-08-21T09:25:00;34.40;77.60
14735;DHT22;7458;49.002;8.472;2023-08-21T09:27:32;34.60;78.60
14735;DHT22;7458;49.002;8.472;2023-08-21T09:30:00;34.20;77.40
14735;DHT22;7458;49.002;8.472;2023-08-21T09:32:29;33.80;77.50
14735;DHT22;7458;49.002;8.472;2023-08-21T09:34:56;34.50;87.30
14735;DHT22;7458;49.002;8.472;2023-08-21T09:37:28;34.40;79.20
14735;DHT22;7458;49.002;8.472;2023-08-21T09:40:00;34.90;78.60
14735;DHT22;7458;49.002;8.472;2023-08-21T09:42:32;35.20;81.40
14735;DHT22;7458;49.002;8.472;2023-08-21T09:44:58;34.80;91.50
14735;DHT22;7458;49.002;8.472;2023-08-21T09:47:26;35.10;77.90
14735;DHT22;7458;49.002;8.472;2023-08-21T09:49:51;34.70;78.40
14735;DHT22;7458;49.002;8.472;2023-08-21T09:52:18;34.40;86.00
14735;DHT22;7458;49.002;8.472;2023-08-21T09:54:44;34.70;76.40
14735;DHT22;7458;49.002;8.472;2023-08-21T09:57:12;34.70;75.60
14735;DHT22;7458;49.002;8.472;2023-08-21T09:59:38;34.60;75.40
14735;DHT22;7458;49.002;8.472;2023-08-21T10:02:09;34.70;76.20
14735;DHT22;7458;49.002;8.472;2023-08-21T10:04:35;35.20;75.20
14735;DHT22;7458;49.002;8.472;2023-08-21T10:07:06;35.40;73.90
14735;DHT22;7458;49.002;8.472;2023-08-21T10:09:33;34.90;71.40
14735;DHT22;7458;49.002;8.472;2023-08-21T10:12:00;35.30;72.60
14735;DHT22;7458;49.002;8.472;2023-08-21T10:14:28;35.60;71.80
14735;DHT22;7458;49.002;8.472;2023-08-21T10:16:54;35.20;71.10
14735;DHT22;7458;49.002;8.472;2023-08-21T10:19:21;35.40;71.30
14735;DHT22;7458;49.002;8.472;2023-08-21T10:21:48;35.40;71.40
14735;DHT22;7458;49.002;8.472;2023-08-21T10:24:35;35.10;68.70
14735;DHT22;7458;49.002;8.472;2023-08-21T10:27:03;35.00;77.90
14735;DHT22;7458;49.002;8.472;2023-08-21T10:29:31;35.40;70.20
14735;DHT22;7458;49.002;8.472;2023-08-21T10:32:02;35.80;68.60
14735;DHT22;7458;49.002;8.472;2023-08-21T10:34:37;35.60;66.60
14735;DHT22;7458;49.002;8.472;2023-08-21T10:37:09;35.60;68.50
14735;DHT22;7458;49.002;8.472;2023-08-21T10:39:38;35.70;65.70
14735;DHT22;7458;49.002;8.472;2023-08-21T10:42:10;35.60;65.20
14735;DHT22;7458;49.002;8.472;2023-08-21T10:49:56;35.90;62.10
14735;DHT22;7458;49.002;8.472;2023-08-21T10:52:28;35.80;61.50
14735;DHT22;7458;49.002;8.472;2023-08-21T10:54:57;35.90;61.70
14735;DHT22;7458;49.002;8.472;2023-08-21T11:00:07;36.10;60.70
14735;DHT22;7458;49.002;8.472;2023-08-21T11:02:36;36.10;60.60
14735;DHT22;7458;49.002;8.472;2023-08-21T11:05:07;36.00;68.40
14735;DHT22;7458;49.002;8.472;2023-08-21T11:07:38;36.20;61.20
14735;DHT22;7458;49.002;8.472;2023-08-21T11:10:07;36.70;60.00
14735;DHT22;7458;49.002;8.472;2023-08-21T11:12:35;36.50;60.10
14735;DHT22;7458;49.002;8.472;2023-08-21T11:15:02;36.70;72.00
14735;DHT22;7458;49.002;8.472;2023-08-21T11:17:28;36.50;60.60
14735;DHT22;7458;49.002;8.472;2023-08-21T11:19:55;36.40;61.10
14735;DHT22;7458;49.002;8.472;2023-08-21T11:22:28;36.20;61.00
14735;DHT22;7458;49.002;8.472;2023-08-21T11:24:55;36.20;73.30
14735;DHT22;7458;49.002;8.472;2023-08-21T11:27:21;36.60;60.60
14735;DHT22;7458;49.002;8.472;2023-08-21T11:29:49;36.80;60.10
14735;DHT22;7458;49.002;8.472;2023-08-21T11:32:17;36.90;60.70
14735;DHT22;7458;49.002;8.472;2023-08-21T11:34:55;36.70;58.80
14735;DHT22;7458;49.002;8.472;2023-08-21T11:37:24;36.70;58.70
14735;DHT22;7458;49.002;8.472;2023-08-21T11:39:57;36.80;59.10
14735;DHT22;7458;49.002;8.472;2023-08-21T11:42:31;36.80;58.30
14735;DHT22;7458;49.002;8.472;2023-08-21T11:45:00;36.80;68.50
14735;DHT22;7458;49.002;8.472;2023-08-21T11:47:31;36.70;57.70
14735;DHT22;7458;49.002;8.472;2023-08-21T11:50:03;36.90;58.20
14735;DHT22;7458;49.002;8.472;2023-08-21T11:52:30;37.10;57.70
14735;DHT22;7458;49.002;8.472;2023-08-21T11:54:57;36.90;65.90
14735;DHT22;7458;49.002;8.472;2023-08-21T11:57:24;34.10;56.80
14735;DHT22;7458;49.002;8.472;2023-08-21T11:59:54;37.00;57.90
14735;DHT22;7458;49.002;8.472;2023-08-21T12:02:25;36.90;57.50
14735;DHT22;7458;49.002;8.472;2023-08-21T12:05:02;36.90;57.30
14735;DHT22;7458;49.002;8.472;2023-08-21T12:07:31;37.10;56.40
14735;DHT22;7458;49.002;8.472;2023-08-21T12:09:57;37.10;56.30
14735;DHT22;7458;49.002;8.472;2023-08-21T12:12:23;37.40;57.00
14735;DHT22;7458;49.002;8.472;2023-08-21T12:14:49;37.10;57.30
14735;DHT22;7458;49.002;8.472;2023-08-21T12:17:15;36.60;61.80
14735;DHT22;7458;49.002;8.472;2023-08-21T12:19:41;37.00;56.70
14735;DHT22;7458;49.002;8.472;2023-08-21T12:22:08;37.10;57.10
14735;DHT22;7458;49.002;8.472;2023-08-21T12:24:35;36.90;56.80
14735;DHT22;7458;49.002;8.472;2023-08-21T12:27:03;36.60;56.60
14735;DHT22;7458;49.002;8.472;2023-08-21T12:29:29;36.50;58.30
14735;DHT22;7458;49.002;8.472;2023-08-21T12:31:55;36.50;57.20
14735;DHT22;7458;49.002;8.472;2023-08-21T12:34:21;36.40;58.00
14735;DHT22;7458;49.002;8.472;2023-08-21T12:36:52;36.40;64.70
14735;DHT22;7458;49.002;8.472;2023-08-21T12:39:18;36.30;58.30
14735;DHT22;7458;49.002;8.472;2023-08-21T12:41:44;36.50;64.00
14735;DHT22;7458;49.002;8.472;2023-08-21T12:44:10;36.40;63.90
14735;DHT22;7458;49.002;8.472;2023-08-21T12:46:36;36.30;57.60
14735;DHT22;7458;49.002;8.472;2023-08-21T12:49:02;36.00;64.40
14735;DHT22;7458;49.002;8.472;2023-08-21T12:51:28;36.50;66.90
14735;DHT22;7458;49.002;8.472;2023-08-21T12:53:54;36.30;66.00
14735;DHT22;7458;49.002;8.472;2023-08-21T12:56:21;36.20;58.90
14735;DHT22;7458;49.002;8.472;2023-08-21T12:58:47;35.50;65.00
14735;DHT22;7458;49.002;8.472;2023-08-21T13:01:13;36.00;58.30
14735;DHT22;7458;49.002;8.472;2023-08-21T13:03:46;35.80;58.60
14735;DHT22;7458;49.002;8.472;2023-08-21T13:06:13;35.70;58.80
14735;DHT22;7458;49.002;8.472;2023-08-21T13:08:39;35.60;58.60
14735;DHT22;7458;49.002;8.472;2023-08-21T13:11:05;35.60;59.30
14735;DHT22;7458;49.002;8.472;2023-08-21T13:13:32;35.60;59.60
14735;DHT22;7458;49.002;8.472;2023-08-21T13:16:01;35.50;59.20
14735;DHT22;7458;49.002;8.472;2023-08-21T13:18:29;35.60;59.40
14735;DHT22;7458;49.002;8.472;2023-08-21T13:20:54;35.50;59.20
14735;DHT22;7458;49.002;8.472;2023-08-21T13:23:20;35.40;59.40
14735;DHT22;7458;49.002;8.472;2023-08-21T13:25:46;35.50;60.00
14735;DHT22;7458;49.002;8.472;2023-08-21T13:28:12;35.40;59.40
14735;DHT22;7458;49.002;8.472;2023-08-21T13:30:38;35.40;60.10
14735;DHT22;7458;49.002;8.472;2023-08-21T13:33:04;35.20;60.80
14735;DHT22;7458;49.002;8.472;2023-08-21T13:35:30;35.30;60.30
14735;DHT22;7458;49.002;8.472;2023-08-21T13:37:56;35.30;60.30
14735;DHT22;7458;49.002;8.472;2023-08-21T13:40:24;35.20;69.70
14735;DHT22;7458;49.002;8.472;2023-08-21T13:42:50;35.00;61.00
14735;DHT22;7458;49.002;8.472;2023-08-21T13:45:17;34.90;60.80
14735;DHT22;7458;49.002;8.472;2023-08-21T13:47:46;35.10;60.80
14735;DHT22;7458;49.002;8.472;2023-08-21T13:50:13;35.00;60.30
14735;DHT22;7458;49.002;8.472;2023-08-21T13:52:41;35.10;60.90
14735;DHT22;7458;49.002;8.472;2023-08-21T13:55:09;35.10;70.50
14735;DHT22;7458;49.002;8.472;2023-08-21T13:57:36;35.00;61.60
14735;DHT22;7458;49.002;8.472;2023-08-21T14:00:04;35.00;68.40
14735;DHT22;7458;49.002;8.472;2023-08-21T14:02:33;35.20;61.00
14735;DHT22;7458;49.002;8.472;2023-08-21T14:05:00;35.40;68.70
14735;DHT22;7458;49.002;8.472;2023-08-21T14:09:54;35.10;68.70
14735;DHT22;7458;49.002;8.472;2023-08-21T14:12:20;34.90;68.70
14735;DHT22;7458;49.002;8.472;2023-08-21T14:17:11;35.10;60.90
14735;DHT22;7458;49.002;8.472;2023-08-21T14:19:37;35.10;60.50
14735;DHT22;7458;49.002;8.472;2023-08-21T14:22:03;34.80;68.60
14735;DHT22;7458;49.002;8.472;2023-08-21T14:24:30;34.90;60.80
14735;DHT22;7458;49.002;8.472;2023-08-21T14:26:56;34.80;68.40
14735;DHT22;7458;49.002;8.472;2023-08-21T14:31:48;35.10;59.20
14735;DHT22;7458;49.002;8.472;2023-08-21T14:34:15;35.00;58.60
14735;DHT22;7458;49.002;8.472;2023-08-21T14:36:41;35.00;59.10
14735;DHT22;7458;49.002;8.472;2023-08-21T14:39:08;35.00;60.60
14735;DHT22;7458;49.002;8.472;2023-08-21T14:41:37;35.40;67.60
14735;DHT22;7458;49.002;8.472;2023-08-21T14:44:03;35.10;59.50
14735;DHT22;7458;49.002;8.472;2023-08-21T14:46:31;35.10;59.00
14735;DHT22;7458;49.002;8.472;2023-08-21T14:48:56;35.00;58.60
14735;DHT22;7458;49.002;8.472;2023-08-21T14:51:22;34.90;59.50
14735;DHT22;7458;49.002;8.472;2023-08-21T14:56:14;34.80;66.80
14735;DHT22;7458;49.002;8.472;2023-08-21T14:58:39;34.90;59.60
14735;DHT22;7458;49.002;8.472;2023-08-21T15:01:09;35.10;59.30
14735;DHT22;7458;49.002;8.472;2023-08-21T15:03:38;35.10;58.60
14735;DHT22;7458;49.002;8.472;2023-08-21T15:06:04;35.10;58.90
14735;DHT22;7458;49.002;8.472;2023-08-21T15:08:31;35.10;58.10
14735;DHT22;7458;49.002;8.472;2023-08-21T15:10:57;35.10;59.00
14735;DHT22;7458;49.002;8.472;2023-08-21T15:13:22;35.10;58.90
14735;DHT22;7458;49.002;8.472;2023-08-21T15:15:48;35.10;58.50
14735;DHT22;7458;49.002;8.472;2023-08-21T15:18:14;35.10;58.70
14735;DHT22;7458;49.002;8.472;2023-08-21T15:20:40;35.10;65.40
14735;DHT22;7458;49.002;8.472;2023-08-21T15:23:05;35.00;57.80
14735;DHT22;7458;49.002;8.472;2023-08-21T15:25:31;35.10;57.90
14735;DHT22;7458;49.002;8.472;2023-08-21T15:27:57;35.10;57.80
14735;DHT22;7458;49.002;8.472;2023-08-21T15:30:22;35.10;57.50
14735;DHT22;7458;49.002;8.472;2023-08-21T15:32:48;35.00;58.00
14735;DHT22;7458;49.002;8.472;2023-08-21T15:35:15;35.10;57.80
14735;DHT22;7458;49.002;8.472;2023-08-21T15:37:41;35.20;57.60
14735;DHT22;7458;49.002;8.472;2023-08-21T15:40:07;34.90;57.40
14735;DHT22;7458;49.002;8.472;2023-08-21T15:42:34;34.90;64.60
14735;DHT22;7458;49.002;8.472;2023-08-21T15:45:00;34.70;64.60
14735;DHT22;7458;49.002;8.472;2023-08-21T15:47:26;34.80;57.20
14735;DHT22;7458;49.002;8.472;2023-08-21T15:49:51;34.80;57.90
14735;DHT22;7458;49.002;8.472;2023-08-21T15:52:17;34.40;65.10
14735;DHT22;7458;49.002;8.472;2023-08-21T15:54:43;34.60;64.60
14735;DHT22;7458;49.002;8.472;2023-08-21T15:57:10;34.40;64.20
14735;DHT22;7458;49.002;8.472;2023-08-21T15:59:36;34.80;57.40
14735;DHT22;7458;49.002;8.472;2023-08-21T16:02:04;34.60;66.10
14735;DHT22;7458;49.002;8.472;2023-08-21T16:04:29;34.70;58.50
14735;DHT22;7458;49.002;8.472;2023-08-21T16:06:55;34.40;65.40
14735;DHT22;7458;49.002;8.472;2023-08-21T16:09:21;34.80;58.30
14735;DHT22;7458;49.002;8.472;2023-08-21T16:11:47;34.80;58.30
14735;DHT22;7458;49.002;8.472;2023-08-21T16:14:12;34.80;58.10
14735;DHT22;7458;49.002;8.472;2023-08-21T16:16:39;35.70;67.10
14735;DHT22;7458;49.002;8.472;2023-08-21T16:19:05;34.60;58.90
14735;DHT22;7458;49.002;8.472;2023-08-21T16:21:30;34.60;65.50
14735;DHT22;7458;49.002;8.472;2023-08-21T16:23:56;34.80;58.20
14735;DHT22;7458;49.002;8.472;2023-08-21T16:26:22;34.80;57.50
14735;DHT22;7458;49.002;8.472;2023-08-21T16:28:48;34.50;67.20
14735;DHT22;7458;49.002;8.472;2023-08-21T16:31:15;34.60;59.10
14735;DHT22;7458;49.002;8.472;2023-08-21T16:33:42;34.70;58.60
14735;DHT22;7458;49.002;8.472;2023-08-21T16:36:09;34.60;59.00
14735;DHT22;7458;49.002;8.472;2023-08-21T16:38:35;34.60;59.20
14735;DHT22;7458;49.002;8.472;2023-08-21T16:41:01;34.60;58.60
14735;DHT22;7458;49.002;8.472;2023-08-21T16:43:27;34.60;58.90
14735;DHT22;7458;49.002;8.472;2023-08-21T16:45:53;34.60;59.40
14735;DHT22;7458;49.002;8.472;2023-08-21T16:48:20;34.50;59.80